createdAt,value
2019-02-11T00:00:00.244Z,986.14
2019-02-11T00:01:00.122Z,986.09
2019-02-11T00:02:52.893Z,986.16
2019-02-11T00:03:59.538Z,986.16
2019-02-11T00:05:45.595Z,986.22
2019-02-11T00:06:45.512Z,986.13
2019-02-11T00:08:38.257Z,986.21
2019-02-11T00:09:38.189Z,986.20
2019-02-11T00:11:30.998Z,986.23
2019-02-11T00:12:30.896Z,986.29
2019-02-11T00:14:23.671Z,986.29
2019-02-11T00:15:23.590Z,986.24
2019-02-11T00:17:16.360Z,986.23
2019-02-11T00:18:16.287Z,986.40
2019-02-11T00:20:09.056Z,986.40
2019-02-11T00:21:08.977Z,986.31
2019-02-11T00:23:01.734Z,986.47
2019-02-11T00:24:01.689Z,986.46
2019-02-11T00:25:54.474Z,986.51
2019-02-11T00:26:54.400Z,986.55
2019-02-11T00:28:47.148Z,986.53
2019-02-11T00:29:47.073Z,986.51
2019-02-11T00:31:39.844Z,986.58
2019-02-11T00:32:39.755Z,986.51
2019-02-11T00:34:32.544Z,986.73
2019-02-11T00:35:32.461Z,986.71
2019-02-11T00:37:25.240Z,986.73
2019-02-11T00:38:25.154Z,986.63
2019-02-11T00:40:17.991Z,986.74
2019-02-11T00:41:17.913Z,986.72
2019-02-11T00:43:18.700Z,986.78
2019-02-11T00:44:10.640Z,986.79
2019-02-11T00:46:03.394Z,986.79
2019-02-11T00:47:03.309Z,986.79
2019-02-11T00:48:56.067Z,986.83
2019-02-11T00:49:55.996Z,986.82
2019-02-11T00:51:48.802Z,986.82
2019-02-11T00:52:48.712Z,986.91
2019-02-11T00:54:41.475Z,986.95
2019-02-11T00:55:41.414Z,987.07
2019-02-11T00:57:34.164Z,987.03
2019-02-11T00:58:34.081Z,987.07
2019-02-11T01:00:26.866Z,987.09
2019-02-11T01:01:26.773Z,986.89
2019-02-11T01:03:19.532Z,987.11
2019-02-11T01:04:19.460Z,987.16
2019-02-11T01:06:12.255Z,987.13
2019-02-11T01:07:12.155Z,987.31
2019-02-11T01:09:04.918Z,987.22
2019-02-11T01:10:04.846Z,987.41
2019-02-11T01:11:56.679Z,987.27
2019-02-11T01:12:56.599Z,987.37
2019-02-11T01:14:48.350Z,987.40
2019-02-11T01:15:48.280Z,987.40
2019-02-11T01:17:40.046Z,987.40
2019-02-11T01:18:39.962Z,987.45
2019-02-11T01:20:31.743Z,987.52
2019-02-11T01:21:31.631Z,987.56
2019-02-11T01:23:23.399Z,987.48
2019-02-11T01:24:23.311Z,987.60
2019-02-11T01:26:15.080Z,987.57
2019-02-11T01:27:14.990Z,987.55
2019-02-11T01:29:06.728Z,987.60
2019-02-11T01:30:06.658Z,987.75
2019-02-11T01:31:58.416Z,987.79
2019-02-11T01:32:58.331Z,987.72
2019-02-11T01:34:50.094Z,987.82
2019-02-11T01:35:50.034Z,987.80
2019-02-11T01:37:42.984Z,987.88
2019-02-11T01:38:42.721Z,987.86
2019-02-11T01:40:35.533Z,987.90
2019-02-11T01:41:35.443Z,987.98
2019-02-11T01:43:35.791Z,988.08
2019-02-11T01:44:28.222Z,988.04
2019-02-11T01:46:20.997Z,988.15
2019-02-11T01:47:20.914Z,988.08
2019-02-11T01:49:13.664Z,988.21
2019-02-11T01:50:13.590Z,988.21
2019-02-11T01:52:06.374Z,988.22
2019-02-11T01:53:06.311Z,988.34
2019-02-11T01:54:59.193Z,988.19
2019-02-11T01:57:01.179Z,988.32
2019-02-11T01:58:01.139Z,988.30
2019-02-11T01:59:53.862Z,988.36
2019-02-11T02:00:53.788Z,988.39
2019-02-11T02:02:46.535Z,988.41
2019-02-11T02:03:46.453Z,988.40
2019-02-11T02:05:39.241Z,988.50
2019-02-11T02:06:39.142Z,988.49
2019-02-11T02:08:31.927Z,988.52
2019-02-11T02:09:31.850Z,988.52
2019-02-11T02:11:24.658Z,988.51
2019-02-11T02:12:24.577Z,988.54
2019-02-11T02:14:17.340Z,988.54
2019-02-11T02:15:17.268Z,988.57
2019-02-11T02:17:10.057Z,988.57
2019-02-11T02:18:09.973Z,988.67
2019-02-11T02:20:02.746Z,988.67
2019-02-11T02:21:02.675Z,988.72
2019-02-11T02:22:55.434Z,988.73
2019-02-11T02:23:55.353Z,988.72
2019-02-11T02:25:48.159Z,988.75
2019-02-11T02:26:48.049Z,988.80
2019-02-11T02:28:40.812Z,988.88
2019-02-11T02:29:40.738Z,988.93
2019-02-11T02:31:33.529Z,988.99
2019-02-11T02:32:33.470Z,989.05
2019-02-11T02:34:26.200Z,989.06
2019-02-11T02:35:26.125Z,989.08
2019-02-11T02:37:18.921Z,989.19
2019-02-11T02:38:18.834Z,989.20
2019-02-11T02:40:11.605Z,989.25
2019-02-11T02:41:11.530Z,989.30
2019-02-11T02:43:04.316Z,989.36
2019-02-11T02:44:04.246Z,989.40
2019-02-11T02:45:57.127Z,989.41
2019-02-11T02:46:57.084Z,989.48
2019-02-11T02:48:49.853Z,989.51
2019-02-11T02:49:49.783Z,989.62
2019-02-11T02:51:42.551Z,989.63
2019-02-11T02:52:42.474Z,989.67
2019-02-11T02:54:35.247Z,989.82
2019-02-11T02:55:35.165Z,989.76
2019-02-11T02:57:27.966Z,989.86
2019-02-11T02:58:27.874Z,989.73
2019-02-11T03:00:20.654Z,989.95
2019-02-11T03:01:20.621Z,989.97
2019-02-11T03:03:13.359Z,990.07
2019-02-11T03:04:13.311Z,990.11
2019-02-11T03:06:06.068Z,990.13
2019-02-11T03:07:05.961Z,990.19
2019-02-11T03:08:58.776Z,990.22
2019-02-11T03:09:58.697Z,990.20
2019-02-11T03:11:51.422Z,990.26
2019-02-11T03:12:51.343Z,990.25
2019-02-11T03:14:44.114Z,990.38
2019-02-11T03:15:44.044Z,990.37
2019-02-11T03:17:36.821Z,990.35
2019-02-11T03:18:36.715Z,990.45
2019-02-11T03:20:29.543Z,990.55
2019-02-11T03:21:29.439Z,990.57
2019-02-11T03:23:22.240Z,990.54
2019-02-11T03:24:22.125Z,990.64
2019-02-11T03:26:14.930Z,990.72
2019-02-11T03:27:14.899Z,990.74
2019-02-11T03:29:07.592Z,990.79
2019-02-11T03:30:07.513Z,990.82
2019-02-11T03:32:00.330Z,990.88
2019-02-11T03:33:00.224Z,990.89
2019-02-11T03:34:52.982Z,991.00
2019-02-11T03:35:52.913Z,990.97
2019-02-11T03:37:45.689Z,991.03
2019-02-11T03:38:45.695Z,991.11
2019-02-11T03:40:38.362Z,991.18
2019-02-11T03:41:38.290Z,991.17
2019-02-11T03:43:31.075Z,991.24
2019-02-11T03:44:30.985Z,991.32
2019-02-11T03:46:23.763Z,991.32
2019-02-11T03:47:23.681Z,991.32
2019-02-11T03:49:17.948Z,991.43
2019-02-11T03:50:16.378Z,991.45
2019-02-11T03:52:09.153Z,991.50
2019-02-11T03:53:09.256Z,991.58
2019-02-11T03:55:01.835Z,991.62
2019-02-11T03:56:01.760Z,991.63
2019-02-11T03:57:54.497Z,991.66
2019-02-11T03:58:54.423Z,991.67
2019-02-11T04:00:47.212Z,991.75
2019-02-11T04:01:47.126Z,991.84
2019-02-11T04:03:39.960Z,991.87
2019-02-11T04:04:39.799Z,991.94
2019-02-11T04:06:32.595Z,991.90
2019-02-11T04:07:32.510Z,992.04
2019-02-11T04:09:25.328Z,992.10
2019-02-11T04:10:25.203Z,992.13
2019-02-11T04:12:18.005Z,992.21
2019-02-11T04:13:17.914Z,992.21
2019-02-11T04:15:10.720Z,992.28
2019-02-11T04:16:10.609Z,992.28
2019-02-11T04:18:03.399Z,992.28
2019-02-11T04:19:03.309Z,992.36
2019-02-11T04:20:56.100Z,992.36
2019-02-11T04:21:56.023Z,992.44
2019-02-11T04:23:48.838Z,992.48
2019-02-11T04:24:48.715Z,992.58
2019-02-11T04:26:41.505Z,992.58
2019-02-11T04:27:41.414Z,992.58
2019-02-11T04:29:34.166Z,992.68
2019-02-11T04:30:34.097Z,992.67
2019-02-11T04:32:26.872Z,992.71
2019-02-11T04:33:26.796Z,992.73
2019-02-11T04:35:19.550Z,992.77
2019-02-11T04:36:19.482Z,992.82
2019-02-11T04:38:12.302Z,992.92
2019-02-11T04:39:12.212Z,992.87
2019-02-11T04:41:04.981Z,992.93
2019-02-11T04:42:04.921Z,992.98
2019-02-11T04:43:57.780Z,993.02
2019-02-11T04:44:57.695Z,993.03
2019-02-11T04:46:50.393Z,993.08
2019-02-11T04:47:50.291Z,993.13
2019-02-11T04:49:43.120Z,993.19
2019-02-11T04:50:43.007Z,993.24
2019-02-11T04:52:35.822Z,993.25
2019-02-11T04:53:35.708Z,993.22
2019-02-11T04:55:28.513Z,993.35
2019-02-11T04:56:28.418Z,993.37
2019-02-11T04:58:21.211Z,993.42
2019-02-11T04:59:21.092Z,993.41
2019-02-11T05:01:13.869Z,993.50
2019-02-11T05:02:13.834Z,993.61
2019-02-11T05:04:06.585Z,993.64
2019-02-11T05:05:06.504Z,993.65
2019-02-11T05:06:59.323Z,993.68
2019-02-11T05:07:59.164Z,993.71
2019-02-11T05:09:51.956Z,993.62
2019-02-11T05:10:51.848Z,993.64
2019-02-11T05:12:44.650Z,993.75
2019-02-11T05:13:44.552Z,993.71
2019-02-11T05:15:37.291Z,993.79
2019-02-11T05:16:37.210Z,993.74
2019-02-11T05:18:30.010Z,993.81
2019-02-11T05:19:29.900Z,993.83
2019-02-11T05:21:22.649Z,993.93
2019-02-11T05:22:22.598Z,993.87
2019-02-11T05:24:15.370Z,993.94
2019-02-11T05:25:15.270Z,993.97
2019-02-11T05:27:08.034Z,994.06
2019-02-11T05:28:07.951Z,994.06
2019-02-11T05:30:00.815Z,994.11
2019-02-11T05:31:00.725Z,994.15
2019-02-11T05:32:53.517Z,994.18
2019-02-11T05:33:53.440Z,994.22
2019-02-11T05:35:46.171Z,994.10
2019-02-11T05:36:46.086Z,994.30
2019-02-11T05:38:38.868Z,994.20
2019-02-11T05:39:38.787Z,994.31
2019-02-11T05:41:31.571Z,994.33
2019-02-11T05:42:31.505Z,994.33
2019-02-11T05:44:24.308Z,994.46
2019-02-11T05:45:24.211Z,994.39
2019-02-11T05:47:16.978Z,994.49
2019-02-11T05:48:16.894Z,994.50
2019-02-11T05:50:09.666Z,994.50
2019-02-11T05:51:09.589Z,994.57
2019-02-11T05:53:02.353Z,994.61
2019-02-11T05:54:02.272Z,994.61
2019-02-11T05:55:55.085Z,994.70
2019-02-11T05:56:54.982Z,994.74
2019-02-11T05:58:47.777Z,994.79
2019-02-11T05:59:47.685Z,994.84
2019-02-11T06:01:40.459Z,994.87
2019-02-11T06:02:40.374Z,995.02
2019-02-11T06:04:33.252Z,994.95
2019-02-11T06:05:33.170Z,994.93
2019-02-11T06:07:25.963Z,994.98
2019-02-11T06:08:25.873Z,994.99
2019-02-11T06:10:18.883Z,995.10
2019-02-11T06:11:18.576Z,994.99
2019-02-11T06:13:11.415Z,995.04
2019-02-11T06:14:11.295Z,995.09
2019-02-11T06:16:04.048Z,995.13
2019-02-11T06:17:03.976Z,995.20
2019-02-11T06:18:56.765Z,995.21
2019-02-11T06:19:56.669Z,995.28
2019-02-11T06:21:49.485Z,995.34
2019-02-11T06:22:49.411Z,995.40
2019-02-11T06:24:42.207Z,995.33
2019-02-11T06:25:42.130Z,995.37
2019-02-11T06:27:35.165Z,995.49
2019-02-11T06:28:34.836Z,995.50
2019-02-11T06:30:27.569Z,995.51
2019-02-11T06:31:27.612Z,995.55
2019-02-11T06:33:20.317Z,995.63
2019-02-11T06:34:20.243Z,995.64
2019-02-11T06:36:13.090Z,995.71
2019-02-11T06:37:12.985Z,995.64
2019-02-11T06:39:05.761Z,995.72
2019-02-11T06:40:05.665Z,995.76
2019-02-11T06:41:58.699Z,995.70
2019-02-11T06:42:58.548Z,995.75
2019-02-11T06:44:51.298Z,995.76
2019-02-11T06:45:51.226Z,995.87
2019-02-11T06:47:44.005Z,995.86
2019-02-11T06:48:43.936Z,995.90
2019-02-11T06:50:36.738Z,995.86
2019-02-11T06:51:36.627Z,995.90
2019-02-11T06:53:29.512Z,996.05
2019-02-11T06:54:29.373Z,995.99
2019-02-11T06:56:22.223Z,996.01
2019-02-11T06:57:22.116Z,996.21
2019-02-11T06:59:14.912Z,996.17
2019-02-11T07:00:14.820Z,996.21
2019-02-11T07:02:07.701Z,996.29
2019-02-11T07:03:07.623Z,996.25
2019-02-11T07:05:00.362Z,996.37
2019-02-11T07:06:00.282Z,996.35
2019-02-11T07:07:53.047Z,996.32
2019-02-11T07:08:52.966Z,996.38
2019-02-11T07:10:45.734Z,996.43
2019-02-11T07:11:45.656Z,996.37
2019-02-11T07:13:38.442Z,996.39
2019-02-11T07:14:38.357Z,996.47
2019-02-11T07:16:31.124Z,996.47
2019-02-11T07:17:31.056Z,996.47
2019-02-11T07:19:23.825Z,996.56
2019-02-11T07:20:23.735Z,996.62
2019-02-11T07:22:16.495Z,996.70
2019-02-11T07:23:16.420Z,996.69
2019-02-11T07:25:09.256Z,996.72
2019-02-11T07:26:09.106Z,996.76
2019-02-11T07:28:01.890Z,996.83
2019-02-11T07:29:01.823Z,996.86
2019-02-11T07:30:54.591Z,996.87
2019-02-11T07:31:54.523Z,996.84
2019-02-11T07:33:47.284Z,996.94
2019-02-11T07:34:47.200Z,996.91
2019-02-11T07:36:39.973Z,996.95
2019-02-11T07:37:39.904Z,997.08
2019-02-11T07:39:32.677Z,997.14
2019-02-11T07:40:32.593Z,997.07
2019-02-11T07:42:25.345Z,997.19
2019-02-11T07:43:25.281Z,997.24
2019-02-11T07:45:18.057Z,997.28
2019-02-11T07:46:17.973Z,997.32
2019-02-11T07:48:10.763Z,997.32
2019-02-11T07:49:10.657Z,997.38
2019-02-11T07:51:03.426Z,997.43
2019-02-11T07:52:03.353Z,997.36
2019-02-11T07:53:56.124Z,997.57
2019-02-11T07:54:56.046Z,997.50
2019-02-11T07:56:48.828Z,997.44
2019-02-11T07:57:48.744Z,997.48
2019-02-11T07:59:41.540Z,997.67
2019-02-11T08:00:41.445Z,997.69
2019-02-11T08:02:34.223Z,997.80
2019-02-11T08:03:34.152Z,997.76
2019-02-11T08:05:26.930Z,997.74
2019-02-11T08:06:26.834Z,997.78
2019-02-11T08:08:19.594Z,997.84
2019-02-11T08:09:19.532Z,997.83
2019-02-11T08:11:12.566Z,997.83
2019-02-11T08:12:12.208Z,997.78
2019-02-11T08:14:05.024Z,997.92
2019-02-11T08:15:04.899Z,997.85
2019-02-11T08:16:57.690Z,997.91
2019-02-11T08:17:58.227Z,997.89
2019-02-11T08:19:50.396Z,997.91
2019-02-11T08:20:50.313Z,997.94
2019-02-11T08:22:43.075Z,997.93
2019-02-11T08:23:43.007Z,997.98
2019-02-11T08:25:35.772Z,997.99
2019-02-11T08:26:35.691Z,998.04
2019-02-11T08:28:28.460Z,998.08
2019-02-11T08:29:28.383Z,998.12
2019-02-11T08:31:21.201Z,998.06
2019-02-11T08:32:21.114Z,998.09
2019-02-11T08:34:13.882Z,998.18
2019-02-11T08:35:13.800Z,998.13
2019-02-11T08:37:06.585Z,998.16
2019-02-11T08:38:06.513Z,998.21
2019-02-11T08:39:59.289Z,998.29
2019-02-11T08:40:59.203Z,998.28
2019-02-11T08:42:51.974Z,998.33
2019-02-11T08:43:51.899Z,998.38
2019-02-11T08:45:47.195Z,998.21
2019-02-11T08:46:44.582Z,998.44
2019-02-11T08:48:37.344Z,998.45
2019-02-11T08:49:37.265Z,998.51
2019-02-11T08:51:30.031Z,998.55
2019-02-11T08:52:29.949Z,998.58
2019-02-11T08:54:22.769Z,998.65
2019-02-11T08:55:22.676Z,998.64
2019-02-11T08:57:15.432Z,998.70
2019-02-11T08:58:15.363Z,998.74
2019-02-11T09:00:08.174Z,998.78
2019-02-11T09:01:08.070Z,998.82
2019-02-11T09:03:00.819Z,998.80
2019-02-11T09:04:00.755Z,998.85
2019-02-11T09:05:53.522Z,998.91
2019-02-11T09:06:53.429Z,998.88
2019-02-11T09:08:46.180Z,998.98
2019-02-11T09:09:46.105Z,999.01
2019-02-11T09:11:38.882Z,999.09
2019-02-11T09:12:38.794Z,999.05
2019-02-11T09:14:31.692Z,999.17
2019-02-11T09:15:31.520Z,999.25
2019-02-11T09:17:24.333Z,999.24
2019-02-11T09:18:24.248Z,999.27
2019-02-11T09:20:17.007Z,999.27
2019-02-11T09:21:16.933Z,999.33
2019-02-11T09:23:09.786Z,999.41
2019-02-11T09:24:09.631Z,999.45
2019-02-11T09:26:02.420Z,999.49
2019-02-11T09:27:02.334Z,999.45
2019-02-11T09:28:55.120Z,999.54
2019-02-11T09:29:55.028Z,999.60
2019-02-11T09:31:47.864Z,999.58
2019-02-11T09:32:47.777Z,999.64
2019-02-11T09:34:40.705Z,999.60
2019-02-11T09:35:40.542Z,999.61
2019-02-11T09:37:33.333Z,999.71
2019-02-11T09:38:33.258Z,999.77
2019-02-11T09:40:26.081Z,999.83
2019-02-11T09:41:25.981Z,999.84
2019-02-11T09:43:18.781Z,999.92
2019-02-11T09:44:18.703Z,999.76
2019-02-11T09:46:11.646Z,999.85
2019-02-11T09:47:11.486Z,999.94
2019-02-11T09:49:04.327Z,999.91
2019-02-11T09:50:04.242Z,999.95
2019-02-11T09:51:57.039Z,1000.02
2019-02-11T09:52:56.948Z,999.99
2019-02-11T09:54:49.866Z,1000.08
2019-02-11T09:55:49.673Z,1000.03
2019-02-11T09:57:42.474Z,1000.01
2019-02-11T09:58:42.424Z,1000.08
2019-02-11T10:00:35.328Z,1000.01
2019-02-11T10:01:35.212Z,1000.13
2019-02-11T10:03:28.001Z,1000.24
2019-02-11T10:04:28.025Z,1000.17
2019-02-11T10:06:20.718Z,1000.23
2019-02-11T10:07:20.628Z,1000.24
2019-02-11T10:09:13.402Z,1000.32
2019-02-11T10:10:13.343Z,1000.40
2019-02-11T10:12:06.134Z,1000.29
2019-02-11T10:13:06.066Z,1000.40
2019-02-11T10:14:58.867Z,1000.38
2019-02-11T10:15:58.783Z,1000.38
2019-02-11T10:17:51.564Z,1000.36
2019-02-11T10:18:51.487Z,1000.48
2019-02-11T10:20:44.265Z,1000.45
2019-02-11T10:21:44.187Z,1000.49
2019-02-11T10:23:36.966Z,1000.52
2019-02-11T10:24:36.885Z,1000.57
2019-02-11T10:26:29.668Z,1000.49
2019-02-11T10:27:29.591Z,1000.57
2019-02-11T10:29:22.391Z,1000.51
2019-02-11T10:30:22.323Z,1000.49
2019-02-11T10:32:15.112Z,1000.68
2019-02-11T10:33:15.027Z,1000.63
2019-02-11T10:35:07.802Z,1000.68
2019-02-11T10:36:07.715Z,1000.76
2019-02-11T10:38:00.489Z,1000.77
2019-02-11T10:39:00.400Z,1000.79
2019-02-11T10:40:53.309Z,1000.73
2019-02-11T10:41:53.253Z,1000.76
2019-02-11T10:43:45.987Z,1000.77
2019-02-11T10:44:45.921Z,1000.91
2019-02-11T10:46:38.733Z,1000.81
2019-02-11T10:47:38.660Z,1000.83
2019-02-11T10:49:31.589Z,1000.86
2019-02-11T10:50:31.415Z,1000.95
2019-02-11T10:52:24.181Z,1000.87
2019-02-11T10:53:24.099Z,1000.90
2019-02-11T10:55:15.966Z,1000.99
2019-02-11T10:56:15.818Z,1000.95
2019-02-11T10:58:08.648Z,1001.13
2019-02-11T10:59:08.573Z,1001.02
2019-02-11T11:01:01.471Z,1001.07
2019-02-11T11:02:01.284Z,1001.02
2019-02-11T11:03:54.049Z,1000.99
2019-02-11T11:04:54.006Z,1001.08
2019-02-11T11:06:45.897Z,1001.13
2019-02-11T11:07:45.767Z,1001.16
2019-02-11T11:09:38.715Z,1001.12
2019-02-11T11:10:38.519Z,1001.26
2019-02-11T11:12:31.321Z,1001.22
2019-02-11T11:13:31.259Z,1001.24
2019-02-11T11:15:24.053Z,1001.33
2019-02-11T11:16:29.401Z,1001.32
2019-02-11T11:18:16.722Z,1001.35
2019-02-11T11:19:16.648Z,1001.48
2019-02-11T11:21:09.456Z,1001.51
2019-02-11T11:22:09.373Z,1001.43
2019-02-11T11:24:02.187Z,1001.40
2019-02-11T11:25:02.068Z,1001.52
2019-02-11T11:26:54.876Z,1001.56
2019-02-11T11:27:54.798Z,1001.52
2019-02-11T11:29:47.585Z,1001.61
2019-02-11T11:30:47.515Z,1001.54
2019-02-11T11:32:40.289Z,1001.50
2019-02-11T11:33:40.220Z,1001.65
2019-02-11T11:35:32.994Z,1001.58
2019-02-11T11:36:32.915Z,1001.57
2019-02-11T11:38:25.707Z,1001.69
2019-02-11T11:39:25.788Z,1001.69
2019-02-11T11:41:18.388Z,1001.81
2019-02-11T11:42:18.305Z,1001.76
2019-02-11T11:44:11.105Z,1001.84
2019-02-11T11:45:11.016Z,1001.84
2019-02-11T11:47:03.786Z,1001.92
2019-02-11T11:48:03.739Z,1001.89
2019-02-11T11:49:56.527Z,1001.88
2019-02-11T11:50:56.436Z,1001.92
2019-02-11T11:52:49.211Z,1002.01
2019-02-11T11:53:49.115Z,1002.02
2019-02-11T11:55:41.902Z,1002.07
2019-02-11T11:56:41.831Z,1001.99
2019-02-11T11:58:34.604Z,1002.11
2019-02-11T11:59:34.557Z,1002.12
2019-02-11T12:01:27.345Z,1002.17
2019-02-11T12:02:27.280Z,1002.09
2019-02-11T12:04:20.022Z,1002.17
2019-02-11T12:05:19.958Z,1002.14
2019-02-11T12:07:12.784Z,1002.28
2019-02-11T12:08:12.661Z,1002.16
2019-02-11T12:10:05.438Z,1002.29
2019-02-11T12:11:05.344Z,1002.22
2019-02-11T12:12:58.131Z,1002.27
2019-02-11T12:13:58.100Z,1002.39
2019-02-11T12:15:50.845Z,1002.40
2019-02-11T12:16:56.872Z,1002.35
2019-02-11T12:18:43.537Z,1002.46
2019-02-11T12:19:43.550Z,1002.47
2019-02-11T12:21:36.262Z,1002.43
2019-02-11T12:22:36.148Z,1002.39
2019-02-11T12:24:28.950Z,1002.46
2019-02-11T12:25:28.853Z,1002.60
2019-02-11T12:27:21.663Z,1002.64
2019-02-11T12:28:21.546Z,1002.59
2019-02-11T12:30:14.311Z,1002.79
2019-02-11T12:31:14.237Z,1002.84
2019-02-11T12:33:07.028Z,1002.77
2019-02-11T12:34:06.973Z,1002.81
2019-02-11T12:35:59.750Z,1002.76
2019-02-11T12:36:59.632Z,1002.82
2019-02-11T12:38:52.467Z,1002.84
2019-02-11T12:39:52.409Z,1002.92
2019-02-11T12:41:45.214Z,1002.85
2019-02-11T12:42:45.110Z,1002.90
2019-02-11T12:44:37.888Z,1002.99
2019-02-11T12:45:37.827Z,1003.09
2019-02-11T12:47:30.573Z,1003.14
2019-02-11T12:48:30.503Z,1003.17
2019-02-11T12:50:23.307Z,1003.16
2019-02-11T12:51:23.175Z,1003.13
2019-02-11T12:53:15.983Z,1003.17
2019-02-11T12:54:15.879Z,1003.15
2019-02-11T12:56:08.658Z,1003.11
2019-02-11T12:57:08.586Z,1003.12
2019-02-11T12:59:01.372Z,1003.30
2019-02-11T13:00:01.300Z,1003.17
2019-02-11T13:01:54.108Z,1003.29
2019-02-11T13:02:54.006Z,1003.30
2019-02-11T13:04:46.782Z,1003.33
2019-02-11T13:05:46.883Z,1003.38
2019-02-11T13:07:39.537Z,1003.46
2019-02-11T13:08:39.470Z,1003.40
2019-02-11T13:10:32.242Z,1003.42
2019-02-11T13:11:32.150Z,1003.49
2019-02-11T13:13:24.997Z,1003.42
2019-02-11T13:14:24.903Z,1003.39
2019-02-11T13:16:17.739Z,1003.49
2019-02-11T13:17:32.595Z,1003.55
2019-02-11T13:19:10.437Z,1003.76
2019-02-11T13:20:11.621Z,1003.66
2019-02-11T13:22:03.101Z,1003.69
2019-02-11T13:23:03.169Z,1003.81
2019-02-11T13:24:55.793Z,1003.72
2019-02-11T13:25:55.719Z,1003.72
2019-02-11T13:27:48.486Z,1003.90
2019-02-11T13:28:48.410Z,1003.91
2019-02-11T13:30:41.212Z,1003.92
2019-02-11T13:31:41.135Z,1003.95
2019-02-11T13:33:33.934Z,1004.03
2019-02-11T13:34:33.816Z,1004.13
2019-02-11T13:36:26.610Z,1004.09
2019-02-11T13:37:26.521Z,1004.14
2019-02-11T13:39:19.363Z,1004.20
2019-02-11T13:40:19.243Z,1004.15
2019-02-11T13:42:12.068Z,1004.21
2019-02-11T13:43:11.982Z,1004.22
2019-02-11T13:45:04.769Z,1004.28
2019-02-11T13:46:04.729Z,1004.33
2019-02-11T13:47:58.761Z,1004.34
2019-02-11T13:48:57.407Z,1004.33
2019-02-11T13:50:50.140Z,1004.44
2019-02-11T13:51:50.063Z,1004.48
2019-02-11T13:53:44.217Z,1004.52
2019-02-11T13:54:42.770Z,1004.58
2019-02-11T13:56:35.554Z,1004.56
2019-02-11T13:57:35.494Z,1004.66
2019-02-11T13:59:28.247Z,1004.70
2019-02-11T14:00:28.165Z,1004.73
2019-02-11T14:02:20.994Z,1004.89
2019-02-11T14:03:20.970Z,1004.82
2019-02-11T14:05:13.707Z,1004.87
2019-02-11T14:06:13.634Z,1004.84
2019-02-11T14:08:06.432Z,1004.97
2019-02-11T14:09:06.328Z,1005.09
2019-02-11T14:10:59.115Z,1005.01
2019-02-11T14:11:59.060Z,1005.11
2019-02-11T14:14:02.316Z,1005.10
2019-02-11T14:14:51.765Z,1004.96
2019-02-11T14:16:44.583Z,1005.11
2019-02-11T14:17:44.497Z,1005.17
2019-02-11T14:19:37.349Z,1005.22
2019-02-11T14:20:37.296Z,1005.27
2019-02-11T14:22:30.117Z,1005.29
2019-02-11T14:23:30.022Z,1005.28
2019-02-11T14:25:40.555Z,1005.37
2019-02-11T14:26:22.719Z,1005.34
2019-02-11T14:28:15.558Z,1005.24
2019-02-11T14:29:15.479Z,1005.40
2019-02-11T14:31:08.249Z,1005.55
2019-02-11T14:32:08.197Z,1005.49
2019-02-11T14:34:01.051Z,1005.52
2019-02-11T14:35:00.998Z,1005.48
2019-02-11T14:36:53.736Z,1005.57
2019-02-11T14:37:53.657Z,1005.61
2019-02-11T14:39:46.433Z,1005.41
2019-02-11T14:40:46.350Z,1005.59
2019-02-11T14:42:39.120Z,1005.68
2019-02-11T14:43:39.046Z,1005.63
2019-02-11T14:45:31.817Z,1005.74
2019-02-11T14:46:31.752Z,1005.78
2019-02-11T14:48:28.132Z,1005.87
2019-02-11T14:49:24.459Z,1005.85
2019-02-11T14:51:17.236Z,1005.91
2019-02-11T14:52:17.159Z,1006.01
2019-02-11T14:54:09.952Z,1006.02
2019-02-11T14:55:09.854Z,1006.15
2019-02-11T14:57:02.772Z,1006.07
2019-02-11T14:58:02.646Z,1006.09
2019-02-11T14:59:55.428Z,1006.14
2019-02-11T15:00:55.342Z,1006.18
2019-02-11T15:02:48.156Z,1006.23
2019-02-11T15:03:48.077Z,1006.24
2019-02-11T15:05:40.877Z,1006.41
2019-02-11T15:06:40.806Z,1006.37
2019-02-11T15:08:33.662Z,1006.37
2019-02-11T15:09:33.551Z,1006.41
2019-02-11T15:11:26.330Z,1006.42
2019-02-11T15:12:26.252Z,1006.42
2019-02-11T15:14:19.033Z,1006.39
2019-02-11T15:15:18.946Z,1006.35
2019-02-11T15:17:11.747Z,1006.45
2019-02-11T15:18:11.671Z,1006.45
2019-02-11T15:20:04.408Z,1006.49
2019-02-11T15:21:04.346Z,1006.57
2019-02-11T15:22:57.150Z,1006.59
2019-02-11T15:23:57.071Z,1006.63
2019-02-11T15:25:49.852Z,1006.54
2019-02-11T15:26:49.782Z,1006.62
2019-02-11T15:28:42.560Z,1006.82
2019-02-11T15:29:42.451Z,1006.79
2019-02-11T15:31:35.258Z,1006.80
2019-02-11T15:32:35.180Z,1006.84
2019-02-11T15:34:27.963Z,1006.91
2019-02-11T15:35:27.880Z,1007.04
2019-02-11T15:37:20.708Z,1006.96
2019-02-11T15:38:20.619Z,1007.08
2019-02-11T15:40:13.402Z,1007.14
2019-02-11T15:41:13.329Z,1007.13
2019-02-11T15:43:06.126Z,1007.09
2019-02-11T15:44:06.033Z,1007.17
2019-02-11T15:45:58.788Z,1007.31
2019-02-11T15:46:58.719Z,1007.28
2019-02-11T15:48:51.501Z,1007.33
2019-02-11T15:49:51.461Z,1007.32
2019-02-11T15:51:44.225Z,1007.37
2019-02-11T15:52:44.171Z,1007.37
2019-02-11T15:54:36.915Z,1007.49
2019-02-11T15:55:36.835Z,1007.49
2019-02-11T15:57:29.612Z,1007.53
2019-02-11T15:58:29.576Z,1007.58
2019-02-11T16:00:22.308Z,1007.70
2019-02-11T16:01:22.237Z,1007.56
2019-02-11T16:03:15.025Z,1007.55
2019-02-11T16:04:14.935Z,1007.66
2019-02-11T16:06:10.598Z,1007.74
2019-02-11T16:07:07.632Z,1007.82
2019-02-11T16:09:04.458Z,1007.81
2019-02-11T16:10:00.388Z,1007.78
2019-02-11T16:11:53.157Z,1007.96
2019-02-11T16:12:53.069Z,1007.96
2019-02-11T16:14:45.877Z,1007.98
2019-02-11T16:15:45.784Z,1008.00
2019-02-11T16:17:38.581Z,1008.12
2019-02-11T16:18:38.485Z,1008.08
2019-02-11T16:20:31.312Z,1008.26
2019-02-11T16:21:31.181Z,1008.35
2019-02-11T16:23:24.000Z,1008.42
2019-02-11T16:24:23.911Z,1008.45
2019-02-11T16:26:16.695Z,1008.53
2019-02-11T16:27:16.611Z,1008.51
2019-02-11T16:29:09.511Z,1008.61
2019-02-11T16:30:09.313Z,1008.53
2019-02-11T16:32:02.235Z,1008.70
2019-02-11T16:33:02.123Z,1008.69
2019-02-11T16:34:54.888Z,1008.74
2019-02-11T16:35:54.799Z,1008.76
2019-02-11T16:37:47.559Z,1008.76
2019-02-11T16:38:47.477Z,1008.78
2019-02-11T16:40:40.241Z,1008.87
2019-02-11T16:41:40.210Z,1008.81
2019-02-11T16:43:32.998Z,1008.94
2019-02-11T16:44:32.880Z,1008.91
2019-02-11T16:46:25.669Z,1008.95
2019-02-11T16:47:25.587Z,1009.04
2019-02-11T16:49:18.359Z,1009.12
2019-02-11T16:50:18.260Z,1009.16
2019-02-11T16:52:11.039Z,1009.16
2019-02-11T16:53:10.960Z,1009.23
2019-02-11T16:55:03.792Z,1009.28
2019-02-11T16:56:03.740Z,1009.23
2019-02-11T16:57:56.484Z,1009.34
2019-02-11T16:58:56.410Z,1009.43
2019-02-11T17:00:49.202Z,1009.39
2019-02-11T17:01:49.082Z,1009.46
2019-02-11T17:03:41.863Z,1009.50
2019-02-11T17:04:41.795Z,1009.56
2019-02-11T17:06:35.391Z,1009.58
2019-02-11T17:07:41.650Z,1009.66
2019-02-11T17:09:28.072Z,1009.71
2019-02-11T17:10:27.990Z,1009.78
2019-02-11T17:12:20.815Z,1009.81
2019-02-11T17:13:20.714Z,1009.85
2019-02-11T17:15:13.458Z,1009.83
2019-02-11T17:16:13.374Z,1009.86
2019-02-11T17:18:06.152Z,1009.93
2019-02-11T17:19:09.509Z,1009.99
2019-02-11T17:20:58.825Z,1010.00
2019-02-11T17:21:58.819Z,1009.97
2019-02-11T17:23:51.534Z,1010.03
2019-02-11T17:24:51.462Z,1010.07
2019-02-11T17:26:44.225Z,1010.09
2019-02-11T17:27:44.186Z,1010.07
2019-02-11T17:29:37.038Z,1010.11
2019-02-11T17:30:36.852Z,1010.08
2019-02-11T17:32:29.662Z,1010.20
2019-02-11T17:33:29.588Z,1010.19
2019-02-11T17:35:22.363Z,1010.32
2019-02-11T17:36:22.272Z,1010.32
2019-02-11T17:38:15.064Z,1010.34
2019-02-11T17:39:14.991Z,1010.41
2019-02-11T17:41:07.784Z,1010.41
2019-02-11T17:42:07.760Z,1010.44